createdAt,value
2019-04-14T00:02:11.717Z,35.20
2019-04-14T00:04:46.571Z,34.97
2019-04-14T00:07:18.747Z,33.50
2019-04-14T00:09:50.175Z,34.27
2019-04-14T00:12:21.149Z,35.07
2019-04-14T00:14:53.287Z,33.73
2019-04-14T00:17:24.423Z,34.17
2019-04-14T00:19:56.598Z,34.80
2019-04-14T00:22:29.534Z,34.50
2019-04-14T00:25:00.506Z,33.23
2019-04-14T00:27:32.380Z,33.50
2019-04-14T00:30:04.036Z,33.93
2019-04-14T00:32:43.032Z,35.43
2019-04-14T00:35:34.212Z,36.17
2019-04-14T00:38:17.197Z,33.93
2019-04-14T00:41:13.693Z,34.63
2019-04-14T00:43:55.586Z,34.73
2019-04-14T00:46:34.193Z,35.70
2019-04-14T00:49:07.070Z,34.57
2019-04-14T00:51:39.367Z,34.13
2019-04-14T00:54:11.053Z,35.17
2019-04-14T00:56:43.355Z,34.93
2019-04-14T00:59:15.648Z,33.43
2019-04-14T01:01:46.686Z,35.70
2019-04-14T01:04:18.737Z,33.97
2019-04-14T01:06:51.182Z,35.80
2019-04-14T01:09:22.410Z,34.43
2019-04-14T01:11:53.392Z,35.47
2019-04-14T01:14:25.559Z,35.60
2019-04-14T01:16:57.934Z,32.90
2019-04-14T01:19:29.086Z,32.93
2019-04-14T01:22:01.042Z,33.50
2019-04-14T01:24:33.658Z,33.87
2019-04-14T01:27:06.036Z,35.10
2019-04-14T01:29:38.376Z,33.77
2019-04-14T01:32:11.218Z,33.47
2019-04-14T01:34:43.407Z,36.53
2019-04-14T01:37:15.818Z,34.17
2019-04-14T01:39:48.107Z,34.27
2019-04-14T01:42:20.236Z,33.13
2019-04-14T01:44:52.422Z,34.57
2019-04-14T01:47:24.882Z,34.00
2019-04-14T01:49:57.287Z,32.77
2019-04-14T01:52:38.394Z,35.43
2019-04-14T01:55:28.782Z,32.30
2019-04-14T01:58:07.864Z,33.50
2019-04-14T02:01:10.519Z,34.90
2019-04-14T02:03:43.346Z,33.63
2019-04-14T02:06:15.675Z,32.40
2019-04-14T02:08:47.718Z,33.23
2019-04-14T02:11:19.019Z,30.77
2019-04-14T02:13:50.882Z,33.47
2019-04-14T02:16:32.255Z,32.43
2019-04-14T02:18:56.890Z,32.57
2019-04-14T02:21:28.345Z,31.27
2019-04-14T02:24:00.481Z,32.63
2019-04-14T02:26:32.877Z,34.30
2019-04-14T02:29:04.161Z,33.50
2019-04-14T02:32:00.907Z,33.77
2019-04-14T02:34:48.042Z,34.67
2019-04-14T02:37:12.223Z,33.27
2019-04-14T02:39:48.232Z,32.13
2019-04-14T02:42:26.035Z,33.10
2019-04-14T02:44:45.767Z,33.67
2019-04-14T02:47:39.299Z,32.13
2019-04-14T02:49:50.774Z,32.93
2019-04-14T03:00:07.863Z,34.00
2019-04-14T03:05:01.919Z,33.27
2019-04-14T03:10:18.196Z,33.83
2019-04-14T03:12:48.533Z,31.97
2019-04-14T03:15:15.571Z,33.87
2019-04-14T03:18:24.524Z,31.23
2019-04-14T03:21:21.388Z,32.77
2019-04-14T03:24:07.057Z,34.60
2019-04-14T03:26:45.009Z,31.87
2019-04-14T03:32:14.219Z,33.77
2019-04-14T03:34:42.374Z,31.60
2019-04-14T03:39:39.027Z,32.80
2019-04-14T03:42:08.680Z,34.90
2019-04-14T03:44:41.917Z,32.30
2019-04-14T03:47:21.691Z,32.63
2019-04-14T03:52:27.618Z,33.23
2019-04-14T03:54:45.501Z,33.33
2019-04-14T03:56:59.818Z,34.30
2019-04-14T03:59:32.309Z,32.60
2019-04-14T04:02:03.390Z,33.07
2019-04-14T04:04:34.372Z,36.50
2019-04-14T04:07:06.210Z,33.50
2019-04-14T04:09:46.162Z,32.47
2019-04-14T04:12:18.292Z,34.47
2019-04-14T04:14:49.287Z,34.07
2019-04-14T04:17:34.047Z,34.03
2019-04-14T04:20:20.228Z,33.27
2019-04-14T04:23:09.576Z,33.23
2019-04-14T04:25:48.688Z,32.33
2019-04-14T04:28:40.641Z,32.43
2019-04-14T04:31:32.793Z,34.17
2019-04-14T04:34:09.902Z,29.93
2019-04-14T04:36:53.143Z,34.57
2019-04-14T04:39:33.776Z,34.60
2019-04-14T04:42:04.814Z,32.73
2019-04-14T04:44:35.892Z,32.97
2019-04-14T04:47:07.760Z,34.50
2019-04-14T04:49:38.793Z,34.17
2019-04-14T04:52:11.421Z,36.63
2019-04-14T04:54:42.814Z,33.33
2019-04-14T04:57:13.918Z,33.00
2019-04-14T04:59:45.288Z,33.27
2019-04-14T05:02:17.619Z,33.60
2019-04-14T05:04:50.566Z,34.33
2019-04-14T05:07:23.164Z,39.47
2019-04-14T05:10:19.577Z,35.93
2019-04-14T05:13:03.032Z,33.07
2019-04-14T05:15:59.860Z,37.17
2019-04-14T05:18:31.302Z,33.90
2019-04-14T05:21:02.377Z,36.30
2019-04-14T05:23:34.252Z,33.50
2019-04-14T05:26:05.359Z,34.47
2019-04-14T05:28:37.310Z,35.07
2019-04-14T05:31:09.777Z,36.00
2019-04-14T05:33:40.802Z,34.90
2019-04-14T05:36:12.848Z,35.03
2019-04-14T05:38:44.918Z,34.77
2019-04-14T05:41:16.013Z,36.47
2019-04-14T05:43:52.128Z,34.60
2019-04-14T05:46:20.714Z,35.07
2019-04-14T05:48:51.928Z,34.77
2019-04-14T05:51:24.512Z,35.00
2019-04-14T05:53:56.561Z,33.27
2019-04-14T05:56:27.849Z,36.97
2019-04-14T05:59:00.042Z,36.73
2019-04-14T06:01:31.586Z,36.00
2019-04-14T06:04:02.542Z,36.10
2019-04-14T06:06:33.507Z,37.27
2019-04-14T06:09:06.422Z,36.10
2019-04-14T06:11:37.658Z,39.40
2019-04-14T06:14:08.714Z,36.90
2019-04-14T06:16:39.712Z,37.73
2019-04-14T06:19:10.771Z,36.57
2019-04-14T06:21:41.854Z,35.90
2019-04-14T06:24:12.844Z,40.73
2019-04-14T06:26:44.151Z,37.20
2019-04-14T06:29:15.266Z,37.80
2019-04-14T06:32:03.453Z,36.97
2019-04-14T06:34:49.118Z,37.30
2019-04-14T06:37:35.537Z,37.17
2019-04-14T06:40:07.344Z,36.67
2019-04-14T06:42:38.347Z,34.80
2019-04-14T06:45:10.757Z,37.43
2019-04-14T06:47:42.848Z,38.20
2019-04-14T06:50:13.966Z,39.30
2019-04-14T06:52:44.943Z,36.87
2019-04-14T06:55:15.897Z,35.63
2019-04-14T06:57:46.911Z,39.50
2019-04-14T07:00:17.986Z,35.53
2019-04-14T07:02:48.989Z,35.93
2019-04-14T07:05:19.949Z,37.27
2019-04-14T07:07:56.949Z,37.97
2019-04-14T07:10:23.762Z,36.97
2019-04-14T07:12:54.746Z,38.57
2019-04-14T07:15:25.738Z,37.20
2019-04-14T07:17:56.707Z,36.90
2019-04-14T07:20:27.686Z,36.47
2019-04-14T07:22:58.676Z,39.27
2019-04-14T07:25:29.658Z,36.83
2019-04-14T07:28:00.649Z,36.93
2019-04-14T07:31:02.679Z,36.13
2019-04-14T07:33:52.606Z,35.97
2019-04-14T07:36:37.945Z,35.60
2019-04-14T07:39:26.893Z,32.80
2019-04-14T07:42:06.597Z,34.27
2019-04-14T07:44:55.370Z,34.93
2019-04-14T07:47:45.258Z,34.27
2019-04-14T07:50:25.187Z,37.80
2019-04-14T07:53:14.753Z,34.80
2019-04-14T07:56:05.145Z,35.03
2019-04-14T07:58:48.805Z,35.20
2019-04-14T08:01:26.480Z,34.63
2019-04-14T08:04:16.385Z,34.43
2019-04-14T08:06:51.708Z,32.40
2019-04-14T08:09:22.691Z,34.83
2019-04-14T08:11:53.673Z,33.17
2019-04-14T08:14:24.838Z,33.40
2019-04-14T08:16:55.916Z,35.20
2019-04-14T08:19:26.901Z,34.10
2019-04-14T08:21:58.028Z,34.10
2019-04-14T08:24:29.022Z,33.53
2019-04-14T08:26:59.992Z,32.77
2019-04-14T08:29:30.976Z,33.10
2019-04-14T08:32:01.995Z,34.23
2019-04-14T08:34:32.999Z,33.83
2019-04-14T08:37:04.052Z,33.03
2019-04-14T08:39:35.203Z,34.47
2019-04-14T08:42:19.147Z,34.37
2019-04-14T08:44:51.473Z,33.40
2019-04-14T08:47:30.894Z,39.87
2019-04-14T08:50:07.068Z,39.10
2019-04-14T08:53:03.120Z,33.43
2019-04-14T08:55:39.859Z,32.33
2019-04-14T08:58:21.331Z,32.40
2019-04-14T09:01:01.729Z,32.00
2019-04-14T09:03:50.479Z,32.90
2019-04-14T09:06:29.386Z,34.60
2019-04-14T09:09:19.124Z,33.77
2019-04-14T09:11:54.204Z,33.23
2019-04-14T09:14:25.179Z,33.97
2019-04-14T09:16:56.164Z,31.73
2019-04-14T09:19:27.128Z,31.30
2019-04-14T09:21:58.102Z,33.50
2019-04-14T09:24:29.072Z,33.70
2019-04-14T09:27:00.064Z,32.77
2019-04-14T09:29:31.043Z,32.77
2019-04-14T09:32:02.319Z,33.67
2019-04-14T09:34:34.301Z,33.07
2019-04-14T09:37:05.350Z,33.17
2019-04-14T09:39:36.320Z,35.03
2019-04-14T09:42:07.314Z,33.27
2019-04-14T09:44:38.340Z,32.70
2019-04-14T09:47:09.559Z,32.50
2019-04-14T09:49:40.533Z,32.67
2019-04-14T09:52:11.529Z,32.60
2019-04-14T09:54:42.529Z,30.83
2019-04-14T09:57:13.523Z,32.33
2019-04-14T09:59:44.496Z,29.33
2019-04-14T10:02:15.486Z,29.90
2019-04-14T10:04:46.460Z,32.43
2019-04-14T10:07:17.724Z,31.20
2019-04-14T10:09:48.778Z,30.97
2019-04-14T10:12:19.880Z,32.57
2019-04-14T10:14:50.914Z,32.83
2019-04-14T10:17:21.897Z,32.40
2019-04-14T10:19:52.901Z,32.07
2019-04-14T10:22:33.371Z,32.23
2019-04-14T10:24:57.791Z,34.30
2019-04-14T10:27:28.772Z,32.80
2019-04-14T10:29:59.757Z,32.37
2019-04-14T10:32:30.772Z,31.50
2019-04-14T10:35:01.737Z,35.30
2019-04-14T10:37:33.027Z,34.50
2019-04-14T10:40:06.218Z,32.80
2019-04-14T10:42:37.353Z,34.33
2019-04-14T10:45:08.943Z,32.20
2019-04-14T10:47:39.947Z,31.80
2019-04-14T10:50:11.379Z,34.33
2019-04-14T10:52:42.386Z,34.97
2019-04-14T10:55:13.558Z,34.37
2019-04-14T10:57:44.541Z,33.67
2019-04-14T11:00:17.415Z,34.40
2019-04-14T11:02:48.436Z,31.90
2019-04-14T11:05:20.791Z,31.97
2019-04-14T11:07:51.733Z,31.70
2019-04-14T11:10:22.818Z,30.17
2019-04-14T11:12:53.893Z,32.90
2019-04-14T11:15:25.248Z,32.63
2019-04-14T11:17:56.248Z,34.40
2019-04-14T11:20:27.264Z,33.90
2019-04-14T11:23:03.613Z,34.93
2019-04-14T11:25:30.993Z,36.87
2019-04-14T11:28:01.987Z,35.80
2019-04-14T11:30:33.493Z,32.53
2019-04-14T11:33:19.326Z,33.97
2019-04-14T11:36:05.434Z,36.50
2019-04-14T11:38:53.680Z,34.83
2019-04-14T11:41:24.716Z,35.17
2019-04-14T11:43:55.742Z,33.33
2019-04-14T11:46:26.792Z,33.07
2019-04-14T11:48:57.846Z,34.00
2019-04-14T11:51:28.919Z,33.87
2019-04-14T11:53:59.964Z,32.50
2019-04-14T11:56:30.929Z,34.17
2019-04-14T11:59:01.988Z,34.40
2019-04-14T12:01:51.030Z,33.10
2019-04-14T12:04:53.321Z,32.63
2019-04-14T12:07:41.390Z,32.87
2019-04-14T12:10:14.879Z,33.43
2019-04-14T12:12:45.912Z,32.47
2019-04-14T12:15:16.981Z,34.33
2019-04-14T12:17:47.920Z,33.30
2019-04-14T12:20:18.995Z,33.63
2019-04-14T12:22:50.003Z,32.03
2019-04-14T12:25:21.007Z,31.50
2019-04-14T12:27:52.056Z,31.00
2019-04-14T12:30:24.394Z,34.50
2019-04-14T12:32:55.497Z,32.37
2019-04-14T12:35:26.700Z,32.67
2019-04-14T12:37:57.746Z,32.70
2019-04-14T12:40:28.912Z,30.70
2019-04-14T12:43:18.802Z,33.20
2019-04-14T12:46:07.794Z,30.43
2019-04-14T12:48:44.401Z,29.83
2019-04-14T12:51:20.713Z,31.57
2019-04-14T12:53:51.717Z,33.80
2019-04-14T12:56:25.626Z,31.40
2019-04-14T12:59:18.149Z,31.17
2019-04-14T13:01:59.635Z,31.77
2019-04-14T13:04:30.602Z,31.20
2019-04-14T13:07:01.697Z,30.57
2019-04-14T13:09:32.786Z,30.60
2019-04-14T13:12:04.094Z,30.30
2019-04-14T13:14:36.287Z,30.67
2019-04-14T13:17:07.420Z,30.63
2019-04-14T13:19:38.401Z,30.10
2019-04-14T13:22:09.465Z,29.93
2019-04-14T13:24:40.524Z,31.50
2019-04-14T13:27:11.505Z,32.07
2019-04-14T13:29:42.475Z,34.30
2019-04-14T13:32:13.553Z,31.70
2019-04-14T13:34:44.547Z,31.70
2019-04-14T13:37:15.601Z,32.73
2019-04-14T13:39:46.566Z,32.10
2019-04-14T13:42:17.558Z,31.73
2019-04-14T13:44:48.546Z,31.97
2019-04-14T13:47:19.534Z,31.77
2019-04-14T13:49:50.584Z,32.90
2019-04-14T13:52:21.651Z,30.43
2019-04-14T13:54:52.720Z,31.43
2019-04-14T13:57:23.761Z,32.83
2019-04-14T13:59:54.789Z,31.60
2019-04-14T14:02:26.940Z,32.30
2019-04-14T14:04:57.922Z,30.00
2019-04-14T14:07:28.940Z,31.33
2019-04-14T14:09:59.924Z,31.07
2019-04-14T14:12:35.972Z,32.37
2019-04-14T14:15:34.608Z,31.47
2019-04-14T14:18:33.715Z,32.10
2019-04-14T14:21:16.721Z,30.00
2019-04-14T14:24:04.683Z,28.23
2019-04-14T14:26:36.726Z,33.50
2019-04-14T14:29:07.706Z,31.40
2019-04-14T14:31:38.711Z,31.10
2019-04-14T14:34:09.778Z,30.00
2019-04-14T14:36:40.760Z,32.00
2019-04-14T14:39:13.397Z,29.70
2019-04-14T14:41:44.362Z,29.67
2019-04-14T14:44:15.417Z,31.20
2019-04-14T14:47:03.933Z,30.03
2019-04-14T14:49:59.481Z,32.57
2019-04-14T14:52:31.257Z,31.20
2019-04-14T14:55:02.284Z,30.07
2019-04-14T14:57:33.251Z,29.67
2019-04-14T15:00:06.026Z,29.90
2019-04-14T15:02:37.023Z,31.20
2019-04-14T15:05:08.387Z,30.37
2019-04-14T15:07:39.374Z,30.83
2019-04-14T15:10:10.486Z,29.97
2019-04-14T15:12:41.487Z,29.57
2019-04-14T15:15:12.623Z,30.30
2019-04-14T15:17:43.711Z,29.83
2019-04-14T15:20:15.016Z,29.90
2019-04-14T15:22:46.028Z,29.33
2019-04-14T15:25:17.136Z,30.37
2019-04-14T15:27:48.191Z,30.27
2019-04-14T15:30:21.340Z,31.27
2019-04-14T15:32:52.432Z,29.80
2019-04-14T15:35:23.565Z,32.17
2019-04-14T15:37:54.562Z,33.10
2019-04-14T15:40:25.619Z,30.60
2019-04-14T15:42:56.619Z,29.93
2019-04-14T15:45:27.618Z,30.30
2019-04-14T15:47:58.611Z,31.80
2019-04-14T15:50:29.585Z,30.50
2019-04-14T15:53:00.570Z,30.83
2019-04-14T15:55:31.537Z,30.57
2019-04-14T15:58:24.521Z,30.67
2019-04-14T16:01:13.558Z,31.17
2019-04-14T16:03:52.512Z,30.00
2019-04-14T16:06:45.656Z,30.63
2019-04-14T16:09:38.256Z,30.77
2019-04-14T16:12:28.230Z,30.20
2019-04-14T16:15:08.481Z,31.87
2019-04-14T16:18:07.359Z,30.60
2019-04-14T16:20:40.157Z,31.57
2019-04-14T16:23:11.167Z,29.97
2019-04-14T16:26:05.566Z,30.40
2019-04-14T16:28:45.524Z,30.90
2019-04-14T16:31:33.902Z,30.50
2019-04-14T16:34:13.935Z,30.83
2019-04-14T16:36:45.579Z,29.50
2019-04-14T16:39:16.623Z,30.50
2019-04-14T16:41:47.838Z,30.40
2019-04-14T16:44:19.117Z,30.13
2019-04-14T16:46:50.239Z,29.90
2019-04-14T16:49:21.225Z,31.20
2019-04-14T16:51:58.747Z,31.00
2019-04-14T16:54:54.579Z,29.07
2019-04-14T16:57:44.472Z,30.90
2019-04-14T17:00:23.465Z,30.27
2019-04-14T17:02:54.628Z,30.40
2019-04-14T17:05:25.700Z,31.13
2019-04-14T17:07:56.669Z,31.93
2019-04-14T17:10:28.847Z,29.13
2019-04-14T17:12:59.978Z,27.03
2019-04-14T17:15:48.158Z,28.40
2019-04-14T17:18:50.367Z,28.60
2019-04-14T17:21:52.563Z,25.57
2019-04-14T17:24:36.504Z,27.73
2019-04-14T17:27:35.536Z,28.10
2019-04-14T17:30:26.758Z,28.53
2019-04-14T17:33:11.463Z,26.83
2019-04-14T17:36:01.366Z,27.70
2019-04-14T17:38:51.740Z,28.43
2019-04-14T17:41:47.644Z,28.23
2019-04-14T17:44:26.212Z,30.20
2019-04-14T17:47:06.565Z,28.87
2019-04-14T17:49:56.701Z,29.30
2019-04-14T17:52:46.617Z,29.67
2019-04-14T17:55:34.983Z,28.63
2019-04-14T17:58:19.959Z,28.23
2019-04-14T18:01:15.890Z,30.40
2019-04-14T18:03:52.024Z,28.73
2019-04-14T18:06:26.379Z,30.77
2019-04-14T18:09:19.115Z,29.97
2019-04-14T18:11:56.289Z,28.33
2019-04-14T18:14:35.291Z,29.63
2019-04-14T18:17:11.841Z,30.20
2019-04-14T18:20:02.360Z,29.73
2019-04-14T18:22:33.411Z,29.63
2019-04-14T18:25:05.374Z,29.00
2019-04-14T18:27:45.494Z,30.40
2019-04-14T18:30:21.339Z,30.37
2019-04-14T18:33:11.252Z,30.63
2019-04-14T18:35:53.682Z,32.60
2019-04-14T18:38:44.584Z,30.33
2019-04-14T18:41:29.240Z,32.37
2019-04-14T18:44:23.941Z,31.73
2019-04-14T18:47:32.222Z,36.07
2019-04-14T18:50:12.822Z,33.40
2019-04-14T18:53:02.729Z,33.30
2019-04-14T18:55:48.244Z,33.27
2019-04-14T18:58:41.104Z,32.03
2019-04-14T19:01:15.648Z,32.73
2019-04-14T19:03:46.864Z,32.10
2019-04-14T19:06:17.934Z,32.53
2019-04-14T19:08:50.454Z,33.67
2019-04-14T19:11:49.045Z,33.07
2019-04-14T19:14:35.180Z,33.10
2019-04-14T19:17:25.717Z,32.13
2019-04-14T19:20:01.834Z,33.67
2019-04-14T19:22:29.401Z,33.60
2019-04-14T19:25:08.110Z,34.23
2019-04-14T19:27:33.239Z,32.70
2019-04-14T19:30:05.126Z,32.80
2019-04-14T19:32:36.112Z,34.20
2019-04-14T19:35:07.469Z,33.87
2019-04-14T19:37:38.804Z,32.67
2019-04-14T19:40:10.428Z,32.33
2019-04-14T19:42:41.401Z,31.47
2019-04-14T19:45:14.426Z,33.87
2019-04-14T19:47:45.698Z,33.00
2019-04-14T19:50:16.839Z,32.40
2019-04-14T19:52:47.904Z,31.13
2019-04-14T19:55:20.538Z,34.03
2019-04-14T19:57:51.642Z,32.13
2019-04-14T20:00:22.800Z,32.93
2019-04-14T20:02:53.782Z,33.40
2019-04-14T20:05:24.888Z,33.70
2019-04-14T20:07:55.865Z,34.10
2019-04-14T20:10:26.917Z,33.37
2019-04-14T20:12:58.386Z,33.07
2019-04-14T20:15:33.636Z,34.83
2019-04-14T20:18:22.495Z,33.57
2019-04-14T20:21:16.001Z,34.90
2019-04-14T20:23:55.299Z,36.80
2019-04-14T20:26:42.084Z,34.07
2019-04-14T20:29:34.705Z,33.57
2019-04-14T20:32:24.886Z,35.20
2019-04-14T20:34:55.975Z,33.90
2019-04-14T20:37:26.953Z,35.63
2019-04-14T20:39:58.013Z,36.60
2019-04-14T20:42:29.009Z,34.77
2019-04-14T20:45:00.351Z,34.20
2019-04-14T20:47:31.326Z,32.63
2019-04-14T20:50:02.310Z,34.20
2019-04-14T20:52:33.658Z,32.63
2019-04-14T20:55:07.171Z,32.37
2019-04-14T20:57:38.216Z,33.43
2019-04-14T21:00:10.039Z,33.63
2019-04-14T21:03:00.545Z,32.10
2019-04-14T21:05:56.211Z,34.57
2019-04-14T21:08:55.292Z,33.97
2019-04-14T21:11:29.671Z,33.00
2019-04-14T21:14:31.885Z,33.20
2019-04-14T21:17:10.950Z,32.03
2019-04-14T21:20:09.954Z,33.47
2019-04-14T21:22:49.303Z,33.63
2019-04-14T21:25:33.637Z,34.50
2019-04-14T21:28:19.129Z,33.90
2019-04-14T21:31:08.074Z,35.10
2019-04-14T21:34:07.275Z,33.77
2019-04-14T21:36:50.747Z,33.87
2019-04-14T21:39:58.999Z,36.40
2019-04-14T21:42:29.995Z,35.93
2019-04-14T21:45:00.966Z,34.87
2019-04-14T21:47:31.965Z,38.23
2019-04-14T21:50:03.082Z,34.80
2019-04-14T21:52:42.007Z,35.93
2019-04-14T21:55:13.519Z,38.30
2019-04-14T21:57:59.242Z,34.03
2019-04-14T22:01:34.368Z,35.43
2019-04-14T22:04:29.744Z,36.10
2019-04-14T22:07:11.932Z,35.20
2019-04-14T22:09:42.939Z,36.00
2019-04-14T22:12:14.022Z,39.50
2019-04-14T22:14:45.165Z,36.87
2019-04-14T22:17:16.166Z,37.70
2019-04-14T22:19:47.238Z,38.40
2019-04-14T22:22:18.551Z,39.67
2019-04-14T22:24:49.616Z,40.60
2019-04-14T22:27:20.591Z,38.10
2019-04-14T22:29:51.651Z,37.83
2019-04-14T22:32:22.741Z,36.70
2019-04-14T22:34:53.740Z,38.33
2019-04-14T22:37:24.711Z,38.87
2019-04-14T22:39:55.783Z,37.30
2019-04-14T22:42:26.778Z,37.07
2019-04-14T22:44:57.753Z,39.17
2019-04-14T22:47:28.729Z,39.63
2019-04-14T22:49:59.714Z,38.90
2019-04-14T22:52:30.682Z,38.77
2019-04-14T22:55:01.748Z,39.37
2019-04-14T22:57:32.874Z,39.87
2019-04-14T23:00:05.443Z,39.87
2019-04-14T23:03:06.597Z,39.93
2019-04-14T23:05:47.464Z,38.60
2019-04-14T23:08:40.716Z,38.53
2019-04-14T23:11:27.057Z,38.80
2019-04-14T23:14:20.443Z,40.70
2019-04-14T23:17:11.227Z,38.90
2019-04-14T23:20:05.370Z,39.90
2019-04-14T23:22:46.944Z,43.20
2019-04-14T23:25:18.059Z,39.37
2019-04-14T23:27:50.139Z,39.57
2019-04-14T23:30:21.197Z,45.47
2019-04-14T23:32:52.261Z,41.10
2019-04-14T23:35:23.325Z,43.20
2019-04-14T23:37:54.296Z,46.00
2019-04-14T23:40:25.348Z,43.43
2019-04-14T23:42:56.337Z,45.23
2019-04-14T23:45:27.392Z,44.67
2019-04-14T23:47:59.437Z,45.97
2019-04-14T23:50:30.512Z,43.37
2019-04-14T23:53:01.497Z,44.97
2019-04-14T23:55:32.553Z,44.30
2019-04-14T23:58:03.596Z,43.20
